sensor_id;sensor_type;location;lat;lon;timestamp;pressure;altitude;pressure_sealevel;temperature;humidity
79273;BME280;68718;-19.302;146.788;2023-04-03T00:01:31;101221.19;;;29.20;75.18
79273;BME280;68718;-19.302;146.788;2023-04-03T00:03:57;101227.32;;;28.63;77.14
79273;BME280;68718;-19.302;146.788;2023-04-03T00:06:23;101225.53;;;29.21;74.86
79273;BME280;68718;-19.302;146.788;2023-04-03T00:08:48;101223.43;;;28.46;75.45
79273;BME280;68718;-19.302;146.788;2023-04-03T00:11:13;101219.79;;;29.64;72.68
79273;BME280;68718;-19.302;146.788;2023-04-03T00:13:39;101218.26;;;29.39;72.40
79273;BME280;68718;-19.302;146.788;2023-04-03T00:16:04;101213.12;;;29.98;71.71
79273;BME280;68718;-19.302;146.788;2023-04-03T00:18:29;101206.08;;;29.94;71.72
79273;BME280;68718;-19.302;146.788;2023-04-03T00:20:55;101203.82;;;29.55;72.15
79273;BME280;68718;-19.302;146.788;2023-04-03T00:23:20;101201.57;;;29.59;72.79
79273;BME280;68718;-19.302;146.788;2023-04-03T00:25:45;101203.09;;;29.36;72.44
79273;BME280;68718;-19.302;146.788;2023-04-03T00:28:10;101202.78;;;29.74;71.03
79273;BME280;68718;-19.302;146.788;2023-04-03T00:30:36;101205.15;;;28.94;73.65
79273;BME280;68718;-19.302;146.788;2023-04-03T00:33:01;101203.75;;;28.93;72.41
79273;BME280;68718;-19.302;146.788;2023-04-03T00:35:27;101202.28;;;28.52;74.54
79273;BME280;68718;-19.302;146.788;2023-04-03T00:37:53;101199.08;;;29.57;71.23
79273;BME280;68718;-19.302;146.788;2023-04-03T00:40:17;101199.02;;;29.72;70.35
79273;BME280;68718;-19.302;146.788;2023-04-03T00:42:44;101199.62;;;29.76;71.71
79273;BME280;68718;-19.302;146.788;2023-04-03T00:45:24;101203.49;;;29.66;71.45
79273;BME280;68718;-19.302;146.788;2023-04-03T00:47:33;101202.23;;;28.25;75.61
79273;BME280;68718;-19.302;146.788;2023-04-03T00:49:59;101201.17;;;29.19;73.66
79273;BME280;68718;-19.302;146.788;2023-04-03T00:52:28;101201.14;;;28.78;75.20
79273;BME280;68718;-19.302;146.788;2023-04-03T00:54:52;101202.84;;;28.67;75.91
79273;BME280;68718;-19.302;146.788;2023-04-03T00:57:16;101202.30;;;29.39;72.96
79273;BME280;68718;-19.302;146.788;2023-04-03T00:59:44;101203.09;;;30.43;70.49
79273;BME280;68718;-19.302;146.788;2023-04-03T01:02:06;101201.39;;;29.75;71.96
79273;BME280;68718;-19.302;146.788;2023-04-03T01:04:33;101200.05;;;29.57;71.76
79273;BME280;68718;-19.302;146.788;2023-04-03T01:06:58;101197.59;;;29.84;71.45
79273;BME280;68718;-19.302;146.788;2023-04-03T01:09:22;101193.95;;;29.48;72.41
79273;BME280;68718;-19.302;146.788;2023-04-03T01:11:47;101186.59;;;29.80;71.53
79273;BME280;68718;-19.302;146.788;2023-04-03T01:14:12;101179.01;;;29.16;71.00
79273;BME280;68718;-19.302;146.788;2023-04-03T01:16:38;101177.25;;;30.63;69.14
79273;BME280;68718;-19.302;146.788;2023-04-03T01:19:04;101172.71;;;30.23;70.02
79273;BME280;68718;-19.302;146.788;2023-04-03T01:21:41;101163.28;;;31.04;68.16
79273;BME280;68718;-19.302;146.788;2023-04-03T01:26:19;101157.59;;;29.38;73.53
79273;BME280;68718;-19.302;146.788;2023-04-03T01:28:44;101147.94;;;30.38;70.09
79273;BME280;68718;-19.302;146.788;2023-04-03T01:31:17;101141.13;;;30.39;69.06
79273;BME280;68718;-19.302;146.788;2023-04-03T01:33:37;101129.56;;;30.39;67.18
79273;BME280;68718;-19.302;146.788;2023-04-03T01:36:01;101127.45;;;29.65;68.47
79273;BME280;68718;-19.302;146.788;2023-04-03T01:38:26;101125.26;;;30.07;66.94
79273;BME280;68718;-19.302;146.788;2023-04-03T01:40:51;101120.14;;;29.56;69.04
79273;BME280;68718;-19.302;146.788;2023-04-03T01:43:17;101114.36;;;30.22;67.21
79273;BME280;68718;-19.302;146.788;2023-04-03T01:45:42;101117.78;;;29.88;69.26
79273;BME280;68718;-19.302;146.788;2023-04-03T01:48:07;101118.02;;;30.00;69.22
79273;BME280;68718;-19.302;146.788;2023-04-03T01:50:33;101118.10;;;29.69;70.80
79273;BME280;68718;-19.302;146.788;2023-04-03T01:52:58;101113.95;;;29.53;73.44
79273;BME280;68718;-19.302;146.788;2023-04-03T01:55:24;101109.44;;;30.12;72.59
79273;BME280;68718;-19.302;146.788;2023-04-03T01:57:49;101103.60;;;30.97;70.83
79273;BME280;68718;-19.302;146.788;2023-04-03T02:00:15;101099.17;;;31.02;70.28
79273;BME280;68718;-19.302;146.788;2023-04-03T02:02:40;101097.41;;;30.98;69.73
79273;BME280;68718;-19.302;146.788;2023-04-03T02:05:05;101096.58;;;31.55;68.94
79273;BME280;68718;-19.302;146.788;2023-04-03T02:07:30;101097.98;;;31.00;72.10
79273;BME280;68718;-19.302;146.788;2023-04-03T02:09:56;101092.70;;;30.47;71.82
79273;BME280;68718;-19.302;146.788;2023-04-03T02:12:21;101091.66;;;29.96;73.06
79273;BME280;68718;-19.302;146.788;2023-04-03T02:14:46;101084.34;;;30.70;70.31
79273;BME280;68718;-19.302;146.788;2023-04-03T02:17:12;101079.62;;;30.22;70.77
79273;BME280;68718;-19.302;146.788;2023-04-03T02:19:37;101073.34;;;30.57;71.56
79273;BME280;68718;-19.302;146.788;2023-04-03T02:22:03;101078.80;;;30.31;72.69
79273;BME280;68718;-19.302;146.788;2023-04-03T02:24:28;101077.36;;;30.55;71.15
79273;BME280;68718;-19.302;146.788;2023-04-03T02:26:53;101072.54;;;30.60;71.97
79273;BME280;68718;-19.302;146.788;2023-04-03T02:29:19;101071.28;;;31.96;66.92
79273;BME280;68718;-19.302;146.788;2023-04-03T02:31:44;101069.69;;;31.41;68.61
79273;BME280;68718;-19.302;146.788;2023-04-03T02:34:10;101063.84;;;31.43;67.17
79273;BME280;68718;-19.302;146.788;2023-04-03T02:36:35;101059.06;;;31.48;66.93
79273;BME280;68718;-19.302;146.788;2023-04-03T02:39:00;101055.28;;;32.01;65.14
79273;BME280;68718;-19.302;146.788;2023-04-03T02:41:25;101060.53;;;32.09;66.01
79273;BME280;68718;-19.302;146.788;2023-04-03T02:43:51;101059.62;;;31.48;66.77
79273;BME280;68718;-19.302;146.788;2023-04-03T02:46:16;101056.14;;;31.50;67.93
79273;BME280;68718;-19.302;146.788;2023-04-03T02:48:42;101050.89;;;31.86;65.44
79273;BME280;68718;-19.302;146.788;2023-04-03T02:51:07;101046.42;;;31.82;66.53
79273;BME280;68718;-19.302;146.788;2023-04-03T02:53:33;101042.73;;;31.90;66.60
79273;BME280;68718;-19.302;146.788;2023-04-03T02:55:58;101040.08;;;31.15;68.31
79273;BME280;68718;-19.302;146.788;2023-04-03T02:58:24;101033.44;;;30.93;69.24
79273;BME280;68718;-19.302;146.788;2023-04-03T03:00:49;101029.07;;;29.87;73.43
79273;BME280;68718;-19.302;146.788;2023-04-03T03:03:14;101022.58;;;29.95;73.13
79273;BME280;68718;-19.302;146.788;2023-04-03T03:05:39;101014.60;;;30.40;71.88
79273;BME280;68718;-19.302;146.788;2023-04-03T03:08:05;101008.92;;;29.81;73.73
79273;BME280;68718;-19.302;146.788;2023-04-03T03:10:31;101010.31;;;29.51;74.50
79273;BME280;68718;-19.302;146.788;2023-04-03T03:12:55;101011.02;;;29.78;75.65
79273;BME280;68718;-19.302;146.788;2023-04-03T03:15:21;101005.57;;;29.79;74.34
79273;BME280;68718;-19.302;146.788;2023-04-03T03:17:46;101003.60;;;30.20;72.59
79273;BME280;68718;-19.302;146.788;2023-04-03T03:20:12;101006.12;;;29.99;73.13
79273;BME280;68718;-19.302;146.788;2023-04-03T03:22:37;101013.07;;;29.23;77.49
79273;BME280;68718;-19.302;146.788;2023-04-03T03:25:02;101001.39;;;30.13;73.76
79273;BME280;68718;-19.302;146.788;2023-04-03T03:27:28;101002.78;;;29.93;74.75
79273;BME280;68718;-19.302;146.788;2023-04-03T03:29:53;100996.76;;;29.77;75.88
79273;BME280;68718;-19.302;146.788;2023-04-03T03:32:18;100993.74;;;30.89;72.95
79273;BME280;68718;-19.302;146.788;2023-04-03T03:34:44;100991.20;;;30.87;72.11
79273;BME280;68718;-19.302;146.788;2023-04-03T03:37:09;100991.75;;;29.97;71.82
79273;BME280;68718;-19.302;146.788;2023-04-03T03:39:34;100985.04;;;30.21;72.23
79273;BME280;68718;-19.302;146.788;2023-04-03T03:42:00;100984.44;;;29.89;74.20
79273;BME280;68718;-19.302;146.788;2023-04-03T03:44:25;100981.12;;;29.77;74.24
79273;BME280;68718;-19.302;146.788;2023-04-03T03:46:51;100984.48;;;29.34;73.07
79273;BME280;68718;-19.302;146.788;2023-04-03T03:49:16;100979.34;;;29.52;75.47
79273;BME280;68718;-19.302;146.788;2023-04-03T03:51:41;100969.36;;;29.15;73.99
79273;BME280;68718;-19.302;146.788;2023-04-03T03:54:07;100964.46;;;29.33;73.20
79273;BME280;68718;-19.302;146.788;2023-04-03T03:56:32;100966.26;;;30.55;71.07
79273;BME280;68718;-19.302;146.788;2023-04-03T03:58:58;100959.22;;;30.49;69.73
79273;BME280;68718;-19.302;146.788;2023-04-03T04:01:23;100951.12;;;31.27;68.34
79273;BME280;68718;-19.302;146.788;2023-04-03T04:03:48;100952.74;;;31.28;67.14
79273;BME280;68718;-19.302;146.788;2023-04-03T04:06:13;100952.73;;;30.57;68.67
79273;BME280;68718;-19.302;146.788;2023-04-03T04:08:39;100952.69;;;30.07;70.58
79273;BME280;68718;-19.302;146.788;2023-04-03T04:11:04;100948.86;;;30.25;68.33
79273;BME280;68718;-19.302;146.788;2023-04-03T04:13:29;100950.97;;;29.58;71.70
79273;BME280;68718;-19.302;146.788;2023-04-03T04:15:55;100951.72;;;29.14;71.62
79273;BME280;68718;-19.302;146.788;2023-04-03T04:18:20;100953.32;;;29.09;71.04
79273;BME280;68718;-19.302;146.788;2023-04-03T04:20:47;100946.30;;;29.01;71.11
79273;BME280;68718;-19.302;146.788;2023-04-03T04:23:11;100946.05;;;30.27;68.76
79273;BME280;68718;-19.302;146.788;2023-04-03T04:25:36;100941.13;;;29.95;69.30
79273;BME280;68718;-19.302;146.788;2023-04-03T04:28:01;100938.36;;;29.87;70.95
79273;BME280;68718;-19.302;146.788;2023-04-03T04:30:27;100937.02;;;29.86;71.33
79273;BME280;68718;-19.302;146.788;2023-04-03T04:32:52;100925.08;;;30.00;71.75
79273;BME280;68718;-19.302;146.788;2023-04-03T04:35:18;100926.42;;;29.31;75.15
79273;BME280;68718;-19.302;146.788;2023-04-03T04:37:42;100926.27;;;29.58;72.61
79273;BME280;68718;-19.302;146.788;2023-04-03T04:40:09;100923.84;;;31.76;65.49
79273;BME280;68718;-19.302;146.788;2023-04-03T04:42:33;100924.48;;;32.83;63.20
79273;BME280;68718;-19.302;146.788;2023-04-03T04:44:58;100923.87;;;32.09;64.49
79273;BME280;68718;-19.302;146.788;2023-04-03T04:47:24;100922.75;;;33.75;58.81
79273;BME280;68718;-19.302;146.788;2023-04-03T04:49:50;100918.17;;;35.42;52.75
79273;BME280;68718;-19.302;146.788;2023-04-03T04:52:15;100918.62;;;35.95;50.93
79273;BME280;68718;-19.302;146.788;2023-04-03T04:54:40;100911.87;;;35.63;51.62
79273;BME280;68718;-19.302;146.788;2023-04-03T04:57:06;100912.36;;;35.98;52.75
79273;BME280;68718;-19.302;146.788;2023-04-03T04:59:31;100914.55;;;31.95;66.17
79273;BME280;68718;-19.302;146.788;2023-04-03T05:01:56;100911.70;;;30.34;70.66
79273;BME280;68718;-19.302;146.788;2023-04-03T05:04:21;100913.58;;;30.28;71.25
79273;BME280;68718;-19.302;146.788;2023-04-03T05:06:47;100908.99;;;30.25;72.20
79273;BME280;68718;-19.302;146.788;2023-04-03T05:09:12;100911.25;;;29.79;72.78
79273;BME280;68718;-19.302;146.788;2023-04-03T05:11:38;100916.38;;;30.12;73.97
79273;BME280;68718;-19.302;146.788;2023-04-03T05:14:03;100915.33;;;29.62;73.69
79273;BME280;68718;-19.302;146.788;2023-04-03T05:16:29;100914.33;;;29.91;74.33
79273;BME280;68718;-19.302;146.788;2023-04-03T05:18:53;100916.57;;;29.38;75.36
79273;BME280;68718;-19.302;146.788;2023-04-03T05:21:19;100926.98;;;28.99;79.28
79273;BME280;68718;-19.302;146.788;2023-04-03T05:23:45;100928.66;;;29.05;78.82
79273;BME280;68718;-19.302;146.788;2023-04-03T05:26:09;100928.58;;;28.70;80.33
79273;BME280;68718;-19.302;146.788;2023-04-03T05:28:35;100925.49;;;28.86;80.27
79273;BME280;68718;-19.302;146.788;2023-04-03T05:31:00;100922.27;;;28.32;81.56
79273;BME280;68718;-19.302;146.788;2023-04-03T05:33:26;100920.60;;;29.08;82.58
79273;BME280;68718;-19.302;146.788;2023-04-03T05:35:51;100927.00;;;27.92;87.81
79273;BME280;68718;-19.302;146.788;2023-04-03T05:38:17;100927.93;;;27.15;89.27
79273;BME280;68718;-19.302;146.788;2023-04-03T05:40:42;100922.57;;;28.17;84.22
79273;BME280;68718;-19.302;146.788;2023-04-03T05:43:07;100919.88;;;28.99;82.96
79273;BME280;68718;-19.302;146.788;2023-04-03T05:45:32;100920.98;;;29.23;81.19
79273;BME280;68718;-19.302;146.788;2023-04-03T05:47:59;100928.04;;;28.47;83.26
79273;BME280;68718;-19.302;146.788;2023-04-03T05:50:23;100926.41;;;28.67;82.11
79273;BME280;68718;-19.302;146.788;2023-04-03T05:52:50;100923.35;;;29.51;79.44
79273;BME280;68718;-19.302;146.788;2023-04-03T05:55:14;100925.91;;;29.03;81.09
79273;BME280;68718;-19.302;146.788;2023-04-03T05:57:39;100929.89;;;28.42;82.49
79273;BME280;68718;-19.302;146.788;2023-04-03T06:00:06;100924.24;;;28.43;82.63
79273;BME280;68718;-19.302;146.788;2023-04-03T06:02:30;100920.75;;;28.33;83.40
79273;BME280;68718;-19.302;146.788;2023-04-03T06:04:55;100924.89;;;28.87;82.26
79273;BME280;68718;-19.302;146.788;2023-04-03T06:07:22;100928.22;;;28.27;82.86
79273;BME280;68718;-19.302;146.788;2023-04-03T06:09:46;100929.21;;;28.20;83.15
79273;BME280;68718;-19.302;146.788;2023-04-03T06:12:11;100931.47;;;28.16;81.69
79273;BME280;68718;-19.302;146.788;2023-04-03T06:14:36;100938.48;;;28.74;81.86
79273;BME280;68718;-19.302;146.788;2023-04-03T06:17:02;100945.04;;;28.26;82.19
79273;BME280;68718;-19.302;146.788;2023-04-03T06:19:27;100951.26;;;27.17;82.64
79273;BME280;68718;-19.302;146.788;2023-04-03T06:21:53;100948.38;;;28.32;79.43
79273;BME280;68718;-19.302;146.788;2023-04-03T06:24:19;100953.58;;;27.65;81.63
79273;BME280;68718;-19.302;146.788;2023-04-03T06:26:43;100960.11;;;27.64;84.07
79273;BME280;68718;-19.302;146.788;2023-04-03T06:29:08;100962.44;;;27.73;84.84
79273;BME280;68718;-19.302;146.788;2023-04-03T06:31:34;100959.23;;;27.28;86.93
79273;BME280;68718;-19.302;146.788;2023-04-03T06:33:59;100961.13;;;27.46;86.61
79273;BME280;68718;-19.302;146.788;2023-04-03T06:36:25;100963.82;;;27.62;84.38
79273;BME280;68718;-19.302;146.788;2023-04-03T06:38:50;100964.67;;;27.90;84.38
79273;BME280;68718;-19.302;146.788;2023-04-03T06:41:15;100963.56;;;27.86;82.63
79273;BME280;68718;-19.302;146.788;2023-04-03T06:43:41;100967.78;;;28.04;81.11
79273;BME280;68718;-19.302;146.788;2023-04-03T06:46:06;100974.66;;;27.58;82.49
79273;BME280;68718;-19.302;146.788;2023-04-03T06:48:31;100977.27;;;27.66;80.92
79273;BME280;68718;-19.302;146.788;2023-04-03T06:50:57;100987.01;;;27.35;82.62
79273;BME280;68718;-19.302;146.788;2023-04-03T06:53:22;100980.36;;;27.21;84.11
79273;BME280;68718;-19.302;146.788;2023-04-03T06:55:48;100979.09;;;26.60;86.09
79273;BME280;68718;-19.302;146.788;2023-04-03T06:58:13;100969.84;;;27.29;81.51
79273;BME280;68718;-19.302;146.788;2023-04-03T07:00:38;100967.97;;;27.32;81.02
79273;BME280;68718;-19.302;146.788;2023-04-03T07:03:04;100973.73;;;27.36;80.35
79273;BME280;68718;-19.302;146.788;2023-04-03T07:05:29;100985.50;;;27.72;80.19
79273;BME280;68718;-19.302;146.788;2023-04-03T07:07:55;100994.52;;;28.03;80.68
79273;BME280;68718;-19.302;146.788;2023-04-03T07:10:20;100998.96;;;27.49;84.07
79273;BME280;68718;-19.302;146.788;2023-04-03T07:12:45;101005.44;;;26.99;83.63
79273;BME280;68718;-19.302;146.788;2023-04-03T07:15:11;101015.61;;;27.00;83.88
79273;BME280;68718;-19.302;146.788;2023-04-03T07:17:36;101015.17;;;26.78;83.55
79273;BME280;68718;-19.302;146.788;2023-04-03T07:20:01;101016.16;;;26.95;85.03
79273;BME280;68718;-19.302;146.788;2023-04-03T07:22:27;101019.93;;;26.95;84.31
79273;BME280;68718;-19.302;146.788;2023-04-03T07:24:52;101021.98;;;26.92;83.40
79273;BME280;68718;-19.302;146.788;2023-04-03T07:27:17;101023.18;;;27.24;82.32
79273;BME280;68718;-19.302;146.788;2023-04-03T07:29:43;101027.35;;;27.11;83.30
79273;BME280;68718;-19.302;146.788;2023-04-03T07:32:08;101025.99;;;26.82;84.65
79273;BME280;68718;-19.302;146.788;2023-04-03T07:34:34;101023.11;;;25.86;87.00
79273;BME280;68718;-19.302;146.788;2023-04-03T07:36:59;101021.73;;;26.72;85.13
79273;BME280;68718;-19.302;146.788;2023-04-03T07:39:24;101020.79;;;27.30;84.64
79273;BME280;68718;-19.302;146.788;2023-04-03T07:41:50;101018.10;;;26.94;83.97
79273;BME280;68718;-19.302;146.788;2023-04-03T07:44:15;101017.16;;;26.25;85.79
79273;BME280;68718;-19.302;146.788;2023-04-03T07:46:41;101021.94;;;26.50;84.16
79273;BME280;68718;-19.302;146.788;2023-04-03T07:49:06;101026.93;;;27.22;82.22
79273;BME280;68718;-19.302;146.788;2023-04-03T07:51:31;101033.85;;;26.99;82.83
79273;BME280;68718;-19.302;146.788;2023-04-03T07:53:57;101032.87;;;26.98;83.04
79273;BME280;68718;-19.302;146.788;2023-04-03T07:56:22;101038.48;;;26.83;84.56
79273;BME280;68718;-19.302;146.788;2023-04-03T07:58:48;101044.62;;;26.64;84.45
79273;BME280;68718;-19.302;146.788;2023-04-03T08:01:14;101051.89;;;26.65;83.60
79273;BME280;68718;-19.302;146.788;2023-04-03T08:03:39;101065.42;;;27.12;81.98
79273;BME280;68718;-19.302;146.788;2023-04-03T08:06:05;101074.04;;;27.38;81.42
79273;BME280;68718;-19.302;146.788;2023-04-03T08:08:29;101073.28;;;26.96;82.38
79273;BME280;68718;-19.302;146.788;2023-04-03T08:10:57;101072.27;;;26.24;84.86
79273;BME280;68718;-19.302;146.788;2023-04-03T08:13:21;101074.46;;;25.93;85.59
79273;BME280;68718;-19.302;146.788;2023-04-03T08:15:46;101077.30;;;26.40;85.36
79273;BME280;68718;-19.302;146.788;2023-04-03T08:18:12;101080.32;;;25.81;87.27
79273;BME280;68718;-19.302;146.788;2023-04-03T08:20:37;101083.12;;;26.50;84.56
79273;BME280;68718;-19.302;146.788;2023-04-03T08:23:03;101074.91;;;26.25;85.44
79273;BME280;68718;-19.302;146.788;2023-04-03T08:25:27;101067.74;;;26.41;86.06
79273;BME280;68718;-19.302;146.788;2023-04-03T08:27:53;101060.06;;;26.28;86.59
79273;BME280;68718;-19.302;146.788;2023-04-03T08:30:18;101053.36;;;26.75;85.21
79273;BME280;68718;-19.302;146.788;2023-04-03T08:32:45;101057.36;;;26.34;86.39
79273;BME280;68718;-19.302;146.788;2023-04-03T08:35:11;101065.26;;;26.61;84.96
79273;BME280;68718;-19.302;146.788;2023-04-03T08:37:37;101070.35;;;25.87;87.12
79273;BME280;68718;-19.302;146.788;2023-04-03T08:40:00;101064.10;;;26.33;85.95
79273;BME280;68718;-19.302;146.788;2023-04-03T08:42:36;101063.06;;;26.95;83.61
79273;BME280;68718;-19.302;146.788;2023-04-03T08:44:57;101066.86;;;26.29;86.39
79273;BME280;68718;-19.302;146.788;2023-04-03T08:47:23;101074.85;;;27.11;84.42
79273;BME280;68718;-19.302;146.788;2023-04-03T08:49:43;101075.77;;;26.44;86.15
79273;BME280;68718;-19.302;146.788;2023-04-03T08:52:11;101070.51;;;26.72;84.75
79273;BME280;68718;-19.302;146.788;2023-04-03T08:54:35;101066.83;;;27.18;83.87
79273;BME280;68718;-19.302;146.788;2023-04-03T08:56:59;101064.60;;;27.16;82.22
79273;BME280;68718;-19.302;146.788;2023-04-03T08:59:27;101067.18;;;26.79;82.60
79273;BME280;68718;-19.302;146.788;2023-04-03T09:01:48;101072.84;;;27.09;83.02
79273;BME280;68718;-19.302;146.788;2023-04-03T09:04:15;101078.05;;;26.81;85.43
79273;BME280;68718;-19.302;146.788;2023-04-03T09:06:39;101089.57;;;26.95;83.60
79273;BME280;68718;-19.302;146.788;2023-04-03T09:09:13;101087.80;;;26.69;84.81
79273;BME280;68718;-19.302;146.788;2023-04-03T09:11:38;101087.57;;;26.47;85.85
79273;BME280;68718;-19.302;146.788;2023-04-03T09:13:59;101089.07;;;26.15;86.40
79273;BME280;68718;-19.302;146.788;2023-04-03T09:16:30;101094.73;;;26.28;86.29
79273;BME280;68718;-19.302;146.788;2023-04-03T09:18:48;101094.49;;;26.03;87.63
79273;BME280;68718;-19.302;146.788;2023-04-03T09:21:17;101089.20;;;25.99;87.11
79273;BME280;68718;-19.302;146.788;2023-04-03T09:23:42;101082.97;;;26.80;85.56
79273;BME280;68718;-19.302;146.788;2023-04-03T09:26:05;101081.02;;;26.23;86.31
79273;BME280;68718;-19.302;146.788;2023-04-03T09:28:27;101085.89;;;26.82;85.02
79273;BME280;68718;-19.302;146.788;2023-04-03T09:30:52;101087.10;;;26.95;82.54
79273;BME280;68718;-19.302;146.788;2023-04-03T09:33:18;101078.79;;;26.53;86.13
79273;BME280;68718;-19.302;146.788;2023-04-03T09:35:43;101076.88;;;26.35;87.19
79273;BME280;68718;-19.302;146.788;2023-04-03T09:38:17;101079.88;;;26.38;87.97
79273;BME280;68718;-19.302;146.788;2023-04-03T09:40:36;101090.78;;;26.09;88.58
79273;BME280;68718;-19.302;146.788;2023-04-03T09:43:00;101100.50;;;25.48;91.28
79273;BME280;68718;-19.302;146.788;2023-04-03T09:45:26;101102.05;;;26.26;88.89
79273;BME280;68718;-19.302;146.788;2023-04-03T09:47:49;101104.61;;;25.97;89.94
79273;BME280;68718;-19.302;146.788;2023-04-03T09:50:19;101109.88;;;25.97;90.32
79273;BME280;68718;-19.302;146.788;2023-04-03T09:52:41;101111.96;;;26.49;88.60
79273;BME280;68718;-19.302;146.788;2023-04-03T09:55:13;101119.32;;;26.34;89.18
79273;BME280;68718;-19.302;146.788;2023-04-03T09:57:34;101124.33;;;26.04;89.19
79273;BME280;68718;-19.302;146.788;2023-04-03T10:00:00;101130.97;;;25.63;90.96
79273;BME280;68718;-19.302;146.788;2023-04-03T10:02:32;101131.01;;;26.44;89.02
79273;BME280;68718;-19.302;146.788;2023-04-03T10:04:47;101134.50;;;26.21;90.64
79273;BME280;68718;-19.302;146.788;2023-04-03T10:07:27;101141.10;;;26.50;89.42
79273;BME280;68718;-19.302;146.788;2023-04-03T10:09:37;101147.92;;;26.01;91.83
79273;BME280;68718;-19.302;146.788;2023-04-03T10:12:04;101150.78;;;25.87;91.50
79273;BME280;68718;-19.302;146.788;2023-04-03T10:14:28;101154.48;;;26.16;91.29
79273;BME280;68718;-19.302;146.788;2023-04-03T10:17:01;101152.44;;;26.40;89.00
79273;BME280;68718;-19.302;146.788;2023-04-03T10:19:29;101157.54;;;27.08;88.67
79273;BME280;68718;-19.302;146.788;2023-04-03T10:21:48;101166.03;;;26.10;91.61
79273;BME280;68718;-19.302;146.788;2023-04-03T10:24:13;101176.46;;;25.75;93.15
79273;BME280;68718;-19.302;146.788;2023-04-03T10:26:41;101189.58;;;25.83;92.46
79273;BME280;68718;-19.302;146.788;2023-04-03T10:29:05;101187.99;;;26.29;91.49
79273;BME280;68718;-19.302;146.788;2023-04-03T10:31:31;101181.68;;;26.29;91.31
79273;BME280;68718;-19.302;146.788;2023-04-03T10:34:00;101179.79;;;25.99;91.92
79273;BME280;68718;-19.302;146.788;2023-04-03T10:36:25;101187.65;;;25.99;92.04
79273;BME280;68718;-19.302;146.788;2023-04-03T10:38:51;101200.60;;;25.97;92.21
79273;BME280;68718;-19.302;146.788;2023-04-03T10:41:12;101212.35;;;25.61;92.71
79273;BME280;68718;-19.302;146.788;2023-04-03T10:43:39;101211.75;;;26.18;91.51
79273;BME280;68718;-19.302;146.788;2023-04-03T10:46:03;101209.93;;;26.04;92.78
79273;BME280;68718;-19.302;146.788;2023-04-03T10:48:40;101209.45;;;25.58;93.57
79273;BME280;68718;-19.302;146.788;2023-04-03T10:50:56;101207.91;;;26.19;90.82
79273;BME280;68718;-19.302;146.788;2023-04-03T10:53:22;101208.63;;;25.69;92.61
79273;BME280;68718;-19.302;146.788;2023-04-03T10:55:43;101207.67;;;25.74;92.16
79273;BME280;68718;-19.302;146.788;2023-04-03T10:58:05;101209.34;;;25.80;92.67
79273;BME280;68718;-19.302;146.788;2023-04-03T11:00:36;101208.11;;;25.85;91.73
79273;BME280;68718;-19.302;146.788;2023-04-03T11:02:58;101206.17;;;25.73;91.86
79273;BME280;68718;-19.302;146.788;2023-04-03T11:05:29;101211.27;;;26.85;89.68
79273;BME280;68718;-19.302;146.788;2023-04-03T11:07:50;101218.40;;;26.99;89.47
79273;BME280;68718;-19.302;146.788;2023-04-03T11:10:17;101223.39;;;25.98;93.18
79273;BME280;68718;-19.302;146.788;2023-04-03T11:12:42;101229.55;;;26.17;92.33
79273;BME280;68718;-19.302;146.788;2023-04-03T11:15:03;101239.49;;;25.41;93.79
79273;BME280;68718;-19.302;146.788;2023-04-03T11:17:33;101236.84;;;26.40;91.24
79273;BME280;68718;-19.302;146.788;2023-04-03T11:20:00;101237.91;;;26.47;90.62
79273;BME280;68718;-19.302;146.788;2023-04-03T11:22:24;101235.39;;;26.51;89.95
79273;BME280;68718;-19.302;146.788;2023-04-03T11:24:51;101228.13;;;26.36;89.25
79273;BME280;68718;-19.302;146.788;2023-04-03T11:27:15;101226.67;;;26.64;87.65
79273;BME280;68718;-19.302;146.788;2023-04-03T11:29:37;101232.75;;;26.08;89.83
79273;BME280;68718;-19.302;146.788;2023-04-03T11:32:11;101235.14;;;25.80;92.78
79273;BME280;68718;-19.302;146.788;2023-04-03T11:34:33;101238.97;;;25.73;94.00
79273;BME280;68718;-19.302;146.788;2023-04-03T11:36:54;101236.60;;;25.84;94.04
79273;BME280;68718;-19.302;146.788;2023-04-03T11:39:22;101230.99;;;26.12;92.79
79273;BME280;68718;-19.302;146.788;2023-04-03T11:41:43;101228.56;;;26.17;91.96
79273;BME280;68718;-19.302;146.788;2023-04-03T11:48:58;101230.31;;;26.61;89.55
79273;BME280;68718;-19.302;146.788;2023-04-03T11:53:50;101239.75;;;26.54;91.26
79273;BME280;68718;-19.302;146.788;2023-04-03T11:58:40;101233.32;;;25.68;94.53
79273;BME280;68718;-19.302;146.788;2023-04-03T12:01:08;101230.62;;;25.73;93.35
79273;BME280;68718;-19.302;146.788;2023-04-03T12:05:57;101229.27;;;25.85;92.41
79273;BME280;68718;-19.302;146.788;2023-04-03T12:08:28;101234.57;;;26.16;89.03
79273;BME280;68718;-19.302;146.788;2023-04-03T12:13:17;101241.24;;;27.06;87.95
79273;BME280;68718;-19.302;146.788;2023-04-03T12:15:46;101239.67;;;25.71;91.23
79273;BME280;68718;-19.302;146.788;2023-04-03T12:20:51;101233.42;;;25.94;91.11
79273;BME280;68718;-19.302;146.788;2023-04-03T12:27:44;101247.82;;;25.27;96.65
79273;BME280;68718;-19.302;146.788;2023-04-03T12:30:20;101242.25;;;25.31;96.76
79273;BME280;68718;-19.302;146.788;2023-04-03T12:35:10;101231.97;;;25.52;93.48
79273;BME280;68718;-19.302;146.788;2023-04-03T12:39:56;101226.74;;;26.53;91.76